createdAt,value
2022-10-21T14:22:37.396Z,3.47
2022-10-21T14:25:05.044Z,3.63
2022-10-21T14:27:34.817Z,3.90
2022-10-21T14:30:04.432Z,3.83
2022-10-21T14:32:31.957Z,4.93
2022-10-21T14:35:11.245Z,5.83
2022-10-21T14:37:58.494Z,6.60
2022-10-21T14:40:40.803Z,4.60
2022-10-21T14:43:20.857Z,2.50
2022-10-21T14:45:52.773Z,1.90
2022-10-21T14:48:31.702Z,3.53
2022-10-21T14:51:01.172Z,3.33
2022-10-21T14:53:36.069Z,2.13
2022-10-21T14:56:06.555Z,2.20
2022-10-21T14:58:38.157Z,2.83
2022-10-21T15:01:18.506Z,3.17
2022-10-21T15:03:51.144Z,1.10
2022-10-21T15:06:24.317Z,1.80
2022-10-21T15:09:00.038Z,1.23
2022-10-21T15:11:29.597Z,1.20
2022-10-21T15:14:07.185Z,1.23
2022-10-21T15:16:36.861Z,1.67
2022-10-21T15:19:16.366Z,0.80
2022-10-21T15:21:53.828Z,1.47
2022-10-21T15:24:33.199Z,2.30
2022-10-21T15:27:00.764Z,1.30
2022-10-21T15:29:37.793Z,1.13
2022-10-21T15:32:06.430Z,2.50
2022-10-21T15:34:33.502Z,1.40
2022-10-21T15:37:00.352Z,1.50
2022-10-21T15:39:27.139Z,1.50
2022-10-21T15:41:56.183Z,1.53
2022-10-21T15:44:34.022Z,2.30
2022-10-21T15:47:02.689Z,1.50
2022-10-21T15:49:38.287Z,1.60
2022-10-21T15:52:05.777Z,1.60
2022-10-21T15:54:32.818Z,3.23
2022-10-21T15:57:00.622Z,2.60
2022-10-21T15:59:32.717Z,2.83
2022-10-21T16:02:00.694Z,1.23
2022-10-21T16:04:27.785Z,1.50
2022-10-21T16:06:54.810Z,1.67
2022-10-21T16:09:24.906Z,1.70
2022-10-21T16:11:59.228Z,3.20
2022-10-21T16:14:29.448Z,2.40
2022-10-21T16:17:00.812Z,2.70
2022-10-21T16:19:28.547Z,2.07
2022-10-21T16:21:56.005Z,2.77
2022-10-21T16:24:22.804Z,2.90
2022-10-21T16:26:49.910Z,2.07
2022-10-21T16:29:22.472Z,1.73
2022-10-21T16:31:49.668Z,2.60
2022-10-21T16:34:16.417Z,1.30
2022-10-21T16:36:43.243Z,1.60
2022-10-21T16:39:25.466Z,2.13
2022-10-21T16:41:52.601Z,1.27
2022-10-21T16:44:19.541Z,1.63
2022-10-21T16:46:52.135Z,1.40
2022-10-21T16:49:25.405Z,3.40
2022-10-21T16:51:53.266Z,0.90
2022-10-21T16:54:25.780Z,1.30
2022-10-21T16:57:03.402Z,2.20
2022-10-21T16:59:31.358Z,1.43
2022-10-21T17:02:03.978Z,3.00
2022-10-21T17:04:30.961Z,2.37
2022-10-21T17:07:04.058Z,1.60
2022-10-21T17:09:30.946Z,2.07
2022-10-21T17:11:58.044Z,2.93
2022-10-21T17:14:27.580Z,1.33
2022-10-21T17:16:54.615Z,0.83
2022-10-21T17:19:29.314Z,1.33
2022-10-21T17:22:00.264Z,1.27
2022-10-21T17:24:33.465Z,1.30
2022-10-21T17:27:01.951Z,1.53
2022-10-21T17:29:31.855Z,1.73
2022-10-21T17:32:06.580Z,4.20
2022-10-21T17:35:02.616Z,3.20
2022-10-21T17:37:59.309Z,3.50
2022-10-21T17:41:07.120Z,5.07
2022-10-21T17:47:07.897Z,4.73
2022-10-21T17:49:41.566Z,4.40
2022-10-21T17:53:04.633Z,4.73
2022-10-21T17:55:31.641Z,4.07
2022-10-21T17:58:01.259Z,3.97
2022-10-21T18:00:28.176Z,3.97
2022-10-21T18:02:55.044Z,3.03
2022-10-21T18:05:22.015Z,1.60
2022-10-21T18:07:49.017Z,2.00
2022-10-21T18:10:38.000Z,2.00
2022-10-21T18:13:05.078Z,1.67
2022-10-21T18:15:31.925Z,2.93
2022-10-21T18:17:58.812Z,1.33
2022-10-21T18:20:25.761Z,1.60
2022-10-21T18:22:53.168Z,1.83
2022-10-21T18:25:20.059Z,2.07
2022-10-21T18:27:48.981Z,1.83
2022-10-21T18:30:16.035Z,1.80
2022-10-21T18:32:43.117Z,1.20
2022-10-21T18:35:13.161Z,1.43
2022-10-21T18:37:43.379Z,1.47
2022-10-21T18:40:13.192Z,1.23
2022-10-21T18:42:40.011Z,1.77
2022-10-21T18:45:07.402Z,2.17
2022-10-21T18:47:38.587Z,1.97
2022-10-21T18:50:17.541Z,2.43
2022-10-21T18:52:54.188Z,2.37
2022-10-21T18:55:30.803Z,1.50
2022-10-21T19:01:27.456Z,2.03
2022-10-21T19:06:50.222Z,3.57
2022-10-21T19:09:22.794Z,3.43
2022-10-21T19:11:52.389Z,4.03
2022-10-21T19:14:19.793Z,2.60
2022-10-21T19:16:52.780Z,3.30
2022-10-21T19:19:46.732Z,1.30
2022-10-21T19:25:21.780Z,1.60
2022-10-21T19:28:01.510Z,1.90
2022-10-21T19:30:30.608Z,1.30
2022-10-21T19:33:58.745Z,3.00
2022-10-21T19:36:33.564Z,4.60
2022-10-21T19:42:10.631Z,2.50
2022-10-21T19:44:37.557Z,3.27
2022-10-21T19:47:04.353Z,2.53
2022-10-21T19:49:31.177Z,2.93
2022-10-21T19:51:58.012Z,2.07
2022-10-21T19:54:24.842Z,4.00
2022-10-21T19:56:52.201Z,2.50
2022-10-21T20:01:50.832Z,2.70
2022-10-21T20:04:17.604Z,10.03
2022-10-21T20:06:44.505Z,5.43
2022-10-21T20:09:13.532Z,1.97
2022-10-21T20:11:41.229Z,2.00
2022-10-21T20:14:08.410Z,3.33
2022-10-21T20:16:38.632Z,3.50
2022-10-21T20:19:07.053Z,2.37
2022-10-21T20:21:36.103Z,2.20
2022-10-21T20:24:03.327Z,4.10
2022-10-21T20:26:30.155Z,2.77
2022-10-21T20:28:57.401Z,2.77
2022-10-21T20:31:24.299Z,5.60
2022-10-21T20:33:51.650Z,7.37
2022-10-21T20:36:23.382Z,3.90
2022-10-21T20:41:34.797Z,3.90
2022-10-21T20:44:03.686Z,5.30
2022-10-21T20:46:37.017Z,2.90
2022-10-21T20:49:06.054Z,3.30
2022-10-21T20:51:34.126Z,3.37
2022-10-21T20:54:03.263Z,5.77
2022-10-21T20:56:32.617Z,5.37
2022-10-21T20:58:59.918Z,3.37
2022-10-21T21:01:32.791Z,5.13
2022-10-21T21:04:04.691Z,3.70
2022-10-21T21:06:37.393Z,4.43
2022-10-21T21:11:51.223Z,5.23
2022-10-21T21:14:18.079Z,3.17
2022-10-21T21:16:44.822Z,3.20
2022-10-21T21:19:13.323Z,3.20
2022-10-21T21:21:40.779Z,3.73
2022-10-21T21:24:07.800Z,3.37
2022-10-21T21:26:36.457Z,5.20
2022-10-21T21:29:08.709Z,4.07
2022-10-21T21:31:37.480Z,4.17
2022-10-21T21:34:05.943Z,3.77
2022-10-21T21:36:33.060Z,2.73
2022-10-21T21:38:59.959Z,2.93
2022-10-21T21:41:27.384Z,3.50
2022-10-21T21:43:56.540Z,3.77
2022-10-21T21:46:24.057Z,2.97
2022-10-21T21:48:59.621Z,3.90
2022-10-21T21:51:29.431Z,3.23
2022-10-21T21:53:57.135Z,4.53
2022-10-21T21:56:24.878Z,3.97
2022-10-21T21:58:52.259Z,3.83
2022-10-21T22:01:21.767Z,5.13
2022-10-21T22:03:51.732Z,4.43
2022-10-21T22:06:27.802Z,3.10
2022-10-21T22:08:54.982Z,5.07
2022-10-21T22:11:25.049Z,3.63
2022-10-21T22:13:52.437Z,6.07
2022-10-21T22:16:24.310Z,4.07
2022-10-21T22:18:51.154Z,6.23
2022-10-21T22:21:19.207Z,5.03
2022-10-21T22:23:48.460Z,5.03
2022-10-21T22:26:16.496Z,4.97
2022-10-21T22:28:43.644Z,4.57
2022-10-21T22:31:13.489Z,7.50
2022-10-21T22:33:41.207Z,3.90
2022-10-21T22:36:08.462Z,5.33
2022-10-21T22:38:35.309Z,5.07
2022-10-21T22:41:06.140Z,4.00
2022-10-21T22:43:35.365Z,3.63
2022-10-21T22:46:09.722Z,3.63
2022-10-21T22:48:48.070Z,5.47
2022-10-21T22:51:14.884Z,3.50
2022-10-21T22:53:41.727Z,4.97
2022-10-21T22:56:08.589Z,4.47
2022-10-21T22:58:35.380Z,4.17
2022-10-21T23:01:07.587Z,4.40
2022-10-21T23:03:34.535Z,7.73
2022-10-21T23:06:01.483Z,4.27
2022-10-21T23:08:28.319Z,4.70
2022-10-21T23:10:55.208Z,4.30
2022-10-21T23:13:21.944Z,3.23
2022-10-21T23:15:48.674Z,5.07
2022-10-21T23:18:15.404Z,3.70
2022-10-21T23:20:42.644Z,3.50
2022-10-21T23:23:10.217Z,3.00
2022-10-21T23:25:37.019Z,3.87
2022-10-21T23:28:04.131Z,3.00
2022-10-21T23:30:32.088Z,5.90
2022-10-21T23:32:58.837Z,5.67
2022-10-21T23:35:25.613Z,3.93
2022-10-21T23:37:52.482Z,5.10
2022-10-21T23:40:19.303Z,4.43
2022-10-21T23:42:46.093Z,4.23
2022-10-21T23:45:13.254Z,4.43
2022-10-21T23:47:40.434Z,6.27
2022-10-21T23:50:08.306Z,6.93
2022-10-21T23:52:36.123Z,7.80
2022-10-21T23:55:04.253Z,5.87
2022-10-21T23:57:31.150Z,4.37
2022-10-21T23:59:57.900Z,4.67
